Impacts TAF Board
For situational awareness. Not to be used for flight planning purposes.
IDs:

KBBD - Brady/Curtis Fld, TX, US

Issued at 0520 UTC 19 Aug 2019
Updated at 0624 UTC 19 Aug 2019
Potential Impact None Slight Moderate High
Time0615Z 19/07Z 19/08Z 19/09Z 19/10Z 19/11Z 19/12Z 19/13Z 19/14Z 19/15Z 19/16Z 19/17Z 19/18Z 19/19Z>>
Type OBS PRVL PRVL PRVL PRVL PRVL PRVL PRVL PRVL PRVL PRVL PRVL PRVL PRVL
VIS 10 >6 >6 >6 >6 >6 >6 >6 >6 >6 >6 >6 >6 >6
CIG -- -- -- -- -- -- -- -- -- -- -- -- -- --
Cover CLR SKC SKC SKC SKC SKC SKC SKC SKC SKC SKC SKC SKC SKC
FltCat VFR VFR VFR VFR VFR VFR VFR VFR VFR VFR VFR VFR VFR VFR
WX -- -- -- -- -- -- -- -- -- -- -- -- -- --
WDir 160 140 140 140 140 140 140 140 140 170 170 170 170 170
WSpd 10 7 7 7 7 7 7 7 7 8 8 8 8 8
WGst 18 -- -- -- -- -- -- -- -- -- -- -- -- --
Raw TAF
KBBD 190520Z 1906/2006 14007KT P6SM SKC
  FM191500 17008KT P6SM SKC


Raw METAR
KBBD 190615Z AUTO 16010G18KT 10SM CLR 29/20 A2995 RMK AO2
KBBD 190555Z AUTO 16011G18KT 10SM CLR 29/19 A2995 RMK AO2
KBBD 190535Z AUTO 16009G14KT 10SM CLR 29/18 A2994 RMK AO2
KBBD 190515Z AUTO 16009KT 10SM CLR 29/17 A2994 RMK AO2
KBBD 190455Z AUTO 17007KT 10SM CLR 30/17 A2994 RMK AO2
KBBD 190435Z AUTO 17007KT 10SM CLR 30/17 A2993 RMK AO2
KBBD 190415Z AUTO 16008KT 10SM CLR 30/17 A2993 RMK AO2
KBBD 190355Z AUTO 15007KT 10SM CLR 30/17 A2992 RMK AO2

METAR Board
Radar Display
Forecast Discussion
For situational awareness. Not to be used for flight planning purposes.